GR-0022 weather

Schinoussa Heliport
Cyclades, Greece

Public forecast

Using degrees Celsius for public forecast. Weather courtesy of forecast.io.

Closest aviation weather report (METAR) to Schinoussa Heliport

Closest report is Naxos Airport, 14.6 nm (27.0 km) NNW. Retrieved 2020/07/12 08:50 UTC (1 hour ago):

LGNX 120850Z 36012G22KT 9999 FEW020 27/18 Q1010

Closest aviation forecast (TAF) to Schinoussa Heliport

Closest forecast is Santorini Airport, 28.2 nm (52.2 km) S. Retrieved 2020/07/12 06:13 UTC (4 hours ago):

TAF LGSR 120500Z 1206/1306 31015KT 9999 FEW025 BECMG 1213/1215 32020G30KT